createdAt,value
2023-03-02T00:02:10.824Z,-1.60
2023-03-02T00:04:46.234Z,-1.60
2023-03-02T00:07:36.302Z,-1.70
2023-03-02T00:10:05.957Z,-1.70
2023-03-02T00:12:34.965Z,-1.70
2023-03-02T00:15:02.667Z,-1.80
2023-03-02T00:17:31.546Z,-1.80
2023-03-02T00:20:11.957Z,-1.80
2023-03-02T00:22:44.449Z,-1.90
2023-03-02T00:25:14.998Z,-2.00
2023-03-02T00:27:45.941Z,-2.10
2023-03-02T00:30:14.954Z,-2.20
2023-03-02T00:32:43.421Z,-2.30
2023-03-02T00:35:11.549Z,-2.40
2023-03-02T00:37:41.151Z,-2.40
2023-03-02T00:40:11.047Z,-2.40
2023-03-02T00:42:40.430Z,-2.40
2023-03-02T00:45:08.755Z,-2.40
2023-03-02T00:47:37.679Z,-2.40
2023-03-02T00:50:07.439Z,-2.40
2023-03-02T00:52:36.565Z,-2.40
2023-03-02T00:55:04.627Z,-2.40
2023-03-02T00:57:33.553Z,-2.40
2023-03-02T01:00:01.963Z,-2.40
2023-03-02T01:02:35.087Z,-2.40
2023-03-02T01:05:03.046Z,-2.40
2023-03-02T01:07:31.992Z,-2.30
2023-03-02T01:10:00.144Z,-2.30
2023-03-02T01:12:28.360Z,-2.30
2023-03-02T01:14:56.180Z,-2.20
2023-03-02T01:17:26.618Z,-2.20
2023-03-02T01:19:55.254Z,-2.20
2023-03-02T01:22:23.775Z,-2.20
2023-03-02T01:24:52.240Z,-2.20
2023-03-02T01:27:21.107Z,-2.20
2023-03-02T01:29:51.065Z,-2.20
2023-03-02T01:32:19.243Z,-2.20
2023-03-02T01:34:49.290Z,-2.20
2023-03-02T01:37:21.140Z,-2.20
2023-03-02T01:39:49.554Z,-2.20
2023-03-02T01:42:18.342Z,-2.20
2023-03-02T01:44:54.577Z,-2.20
2023-03-02T01:47:31.808Z,-2.10
2023-03-02T01:50:26.758Z,-2.10
2023-03-02T01:52:58.862Z,-2.10
2023-03-02T01:55:33.239Z,-1.90
2023-03-02T01:58:02.913Z,-1.90
2023-03-02T02:00:37.081Z,-1.90
2023-03-02T02:03:21.479Z,-1.90
2023-03-02T02:06:18.483Z,-1.80
2023-03-02T02:08:46.901Z,-1.90
2023-03-02T02:11:14.725Z,-1.90
2023-03-02T02:13:44.654Z,-1.90
2023-03-02T02:16:12.684Z,-2.00
2023-03-02T02:18:42.005Z,-2.10
2023-03-02T02:21:10.419Z,-2.10
2023-03-02T02:24:16.953Z,-2.10
2023-03-02T02:26:50.320Z,-2.10
2023-03-02T02:29:34.469Z,-2.10
2023-03-02T02:32:07.133Z,-2.10
2023-03-02T02:34:44.256Z,-2.10
2023-03-02T02:37:26.579Z,-2.10
2023-03-02T02:39:59.185Z,-2.10
2023-03-02T02:42:36.456Z,-2.10
2023-03-02T02:45:18.280Z,-2.10
2023-03-02T02:47:46.968Z,-2.20
2023-03-02T02:50:24.354Z,-2.20
2023-03-02T02:53:01.273Z,-2.20
2023-03-02T02:55:31.801Z,-2.10
2023-03-02T02:58:10.458Z,-2.10
2023-03-02T03:00:38.948Z,-2.10
2023-03-02T03:03:29.671Z,-2.00
2023-03-02T03:06:06.078Z,-1.90
2023-03-02T03:09:06.205Z,-1.90
2023-03-02T03:11:59.198Z,-1.90
2023-03-02T03:14:34.947Z,-1.90
2023-03-02T03:17:03.120Z,-1.90
2023-03-02T03:19:32.387Z,-2.00
2023-03-02T03:22:02.796Z,-2.10
2023-03-02T03:24:36.165Z,-2.10
2023-03-02T03:27:07.330Z,-2.10
2023-03-02T03:29:41.182Z,-2.20
2023-03-02T03:32:11.568Z,-2.20
2023-03-02T03:34:43.854Z,-2.30
2023-03-02T03:37:20.225Z,-2.40
2023-03-02T03:39:51.083Z,-2.40
2023-03-02T03:42:19.969Z,-2.50
2023-03-02T03:44:48.041Z,-2.50
2023-03-02T03:47:16.412Z,-2.40
2023-03-02T03:49:44.677Z,-2.40
2023-03-02T03:52:13.125Z,-2.40
2023-03-02T03:54:40.939Z,-2.40
2023-03-02T03:57:12.401Z,-2.40
2023-03-02T03:59:40.819Z,-2.40
2023-03-02T04:02:09.466Z,-2.40
2023-03-02T04:04:41.717Z,-2.50
2023-03-02T04:07:15.961Z,-2.50
2023-03-02T04:09:46.370Z,-2.50
2023-03-02T04:12:16.124Z,-2.60
2023-03-02T04:14:49.383Z,-2.60
2023-03-02T04:17:17.384Z,-2.70
2023-03-02T04:19:48.370Z,-2.70
2023-03-02T04:22:17.328Z,-2.80
2023-03-02T04:24:45.188Z,-2.90
2023-03-02T04:27:13.754Z,-2.90
2023-03-02T04:29:44.184Z,-3.00
2023-03-02T04:32:16.254Z,-3.00
2023-03-02T04:34:51.468Z,-3.10
2023-03-02T04:37:19.928Z,-3.10
2023-03-02T04:39:51.930Z,-3.20
2023-03-02T04:42:22.292Z,-3.20
2023-03-02T04:44:50.496Z,-3.20
2023-03-02T04:47:21.173Z,-3.30
2023-03-02T04:49:54.932Z,-3.30
2023-03-02T04:52:23.498Z,-3.20
2023-03-02T04:54:53.493Z,-3.20
2023-03-02T04:57:21.518Z,-3.20
2023-03-02T04:59:50.351Z,-3.20
2023-03-02T05:02:18.779Z,-3.10
2023-03-02T05:04:49.081Z,-3.10
2023-03-02T05:07:19.497Z,-3.10
2023-03-02T05:09:47.408Z,-3.10
2023-03-02T05:12:15.832Z,-3.00
2023-03-02T05:14:45.459Z,-3.00
2023-03-02T05:17:14.520Z,-3.00
2023-03-02T05:19:42.330Z,-3.00
2023-03-02T05:22:10.932Z,-3.00
2023-03-02T05:24:38.878Z,-3.10
2023-03-02T05:27:07.482Z,-3.10
2023-03-02T05:29:37.380Z,-3.10
2023-03-02T05:32:05.735Z,-3.10
2023-03-02T05:34:33.575Z,-3.20
2023-03-02T05:37:02.903Z,-3.20
2023-03-02T05:39:30.989Z,-3.20
2023-03-02T05:41:59.119Z,-3.30
2023-03-02T05:44:27.051Z,-3.30
2023-03-02T05:46:55.485Z,-3.30
2023-03-02T05:49:23.821Z,-3.20
2023-03-02T05:51:51.974Z,-3.30
2023-03-02T05:54:19.723Z,-3.30
2023-03-02T05:56:51.183Z,-3.30
2023-03-02T05:59:18.832Z,-3.40
2023-03-02T06:01:48.970Z,-3.40
2023-03-02T06:04:17.218Z,-3.40
2023-03-02T06:06:45.866Z,-3.20
2023-03-02T06:09:13.706Z,-3.20
2023-03-02T06:11:44.321Z,-3.20
2023-03-02T06:14:12.032Z,-3.00
2023-03-02T06:16:40.322Z,-2.90
2023-03-02T06:19:08.208Z,-2.80
2023-03-02T06:21:36.414Z,-2.70
2023-03-02T06:24:04.383Z,-2.60
2023-03-02T06:26:33.319Z,-2.40
2023-03-02T06:29:02.002Z,-2.30
2023-03-02T06:31:31.394Z,-2.20
2023-03-02T06:33:59.052Z,-2.10
2023-03-02T06:36:29.082Z,-2.10
2023-03-02T06:38:57.838Z,-2.00
2023-03-02T06:41:26.584Z,-1.90
2023-03-02T06:43:54.590Z,-1.80
2023-03-02T06:46:24.224Z,-1.60
2023-03-02T06:48:53.077Z,-1.50
2023-03-02T06:51:21.439Z,-1.30
2023-03-02T06:53:49.222Z,-1.10
2023-03-02T06:56:17.314Z,-1.10
2023-03-02T06:58:45.046Z,-0.90
2023-03-02T07:01:13.266Z,-0.80
2023-03-02T07:03:41.249Z,-0.70
2023-03-02T07:06:13.402Z,-0.70
2023-03-02T07:08:41.673Z,-0.60
2023-03-02T07:11:12.966Z,-0.40
2023-03-02T07:13:41.088Z,-0.10
2023-03-02T07:16:14.742Z,0.60
2023-03-02T07:18:42.918Z,2.10
2023-03-02T07:21:10.861Z,3.60
2023-03-02T07:23:38.739Z,5.10
2023-03-02T07:26:08.775Z,6.40
2023-03-02T07:28:43.791Z,7.60
2023-03-02T07:31:12.950Z,8.60
2023-03-02T07:33:41.305Z,9.40
2023-03-02T07:36:10.600Z,9.50
2023-03-02T07:38:38.950Z,9.60
2023-03-02T07:41:09.184Z,10.20
2023-03-02T07:43:37.451Z,10.80
2023-03-02T07:46:07.718Z,11.40
2023-03-02T07:48:36.891Z,12.00
2023-03-02T07:51:06.848Z,12.50
2023-03-02T07:53:34.837Z,13.30
2023-03-02T07:56:08.259Z,14.00
2023-03-02T07:58:36.176Z,14.20
2023-03-02T08:01:05.293Z,14.90
2023-03-02T08:03:33.876Z,15.00
2023-03-02T08:06:13.786Z,14.60
2023-03-02T08:08:41.751Z,14.50
2023-03-02T08:11:14.577Z,14.40
2023-03-02T08:13:42.880Z,14.60
2023-03-02T08:16:14.278Z,15.00
2023-03-02T08:18:42.166Z,15.90
2023-03-02T08:21:15.991Z,15.80
2023-03-02T08:23:44.242Z,16.00
2023-03-02T08:26:17.479Z,16.40
2023-03-02T08:28:46.155Z,16.50
2023-03-02T08:31:15.105Z,16.20
2023-03-02T08:33:43.002Z,16.10
2023-03-02T08:36:17.630Z,16.20
2023-03-02T08:38:46.912Z,16.20
2023-03-02T08:41:22.022Z,16.40
2023-03-02T08:43:51.107Z,16.30
2023-03-02T08:46:19.581Z,16.20
2023-03-02T08:48:53.978Z,15.80
2023-03-02T08:51:34.919Z,15.80
2023-03-02T08:54:04.302Z,15.60
2023-03-02T08:56:36.149Z,15.60
2023-03-02T08:59:12.212Z,15.20
2023-03-02T09:01:42.400Z,15.30
2023-03-02T09:04:12.929Z,16.20
2023-03-02T09:06:43.752Z,16.80
2023-03-02T09:09:15.114Z,17.20
2023-03-02T09:11:45.042Z,17.50
2023-03-02T09:14:13.985Z,17.40
2023-03-02T09:16:43.021Z,17.30
2023-03-02T09:19:13.102Z,17.40
2023-03-02T09:21:41.673Z,17.60
2023-03-02T09:24:11.481Z,18.00
2023-03-02T09:26:40.034Z,18.70
2023-03-02T09:29:08.370Z,18.80
2023-03-02T09:31:38.290Z,19.10
2023-03-02T09:34:07.631Z,19.20
2023-03-02T09:36:38.395Z,18.70
2023-03-02T09:39:12.481Z,18.20
2023-03-02T09:41:53.046Z,18.00
2023-03-02T09:44:39.068Z,17.70
2023-03-02T09:47:44.810Z,17.50
2023-03-02T09:50:31.489Z,17.20
2023-03-02T09:53:21.683Z,16.70
2023-03-02T09:55:56.522Z,16.30
2023-03-02T09:58:40.737Z,16.50
2023-03-02T10:01:18.747Z,16.90
2023-03-02T10:03:58.338Z,17.00
2023-03-02T10:06:27.259Z,16.70
2023-03-02T10:08:56.525Z,16.90
2023-03-02T10:11:33.702Z,16.90
2023-03-02T10:14:09.268Z,16.90
2023-03-02T10:16:46.523Z,17.40
2023-03-02T10:19:55.302Z,18.10
2023-03-02T10:22:43.442Z,18.40
2023-03-02T10:25:42.970Z,18.60
2023-03-02T10:28:21.417Z,18.90
2023-03-02T10:31:09.059Z,19.40
2023-03-02T10:33:40.903Z,19.70
2023-03-02T10:36:20.990Z,19.70
2023-03-02T10:38:49.358Z,20.00
2023-03-02T10:41:23.910Z,20.50
2023-03-02T10:43:56.076Z,20.00
2023-03-02T10:46:25.596Z,19.50
2023-03-02T10:48:59.962Z,19.70
2023-03-02T10:51:38.005Z,20.30
2023-03-02T10:54:08.019Z,20.40
2023-03-02T10:56:38.034Z,19.70
2023-03-02T10:59:44.062Z,19.40
2023-03-02T11:02:15.097Z,18.40
2023-03-02T11:04:43.229Z,18.00
2023-03-02T11:07:21.851Z,17.70
2023-03-02T11:10:19.799Z,17.80
2023-03-02T11:12:51.489Z,17.50
2023-03-02T11:15:40.971Z,17.20
2023-03-02T11:18:29.206Z,17.60
2023-03-02T11:21:07.314Z,18.30
2023-03-02T11:23:39.703Z,19.30
2023-03-02T11:26:25.836Z,19.00
2023-03-02T11:28:59.946Z,18.50
2023-03-02T11:31:50.327Z,18.40
2023-03-02T11:34:29.719Z,18.60
2023-03-02T11:37:14.578Z,18.70
2023-03-02T11:39:54.917Z,18.90
2023-03-02T11:42:34.563Z,19.40
2023-03-02T11:45:18.986Z,19.90
2023-03-02T11:48:03.808Z,19.90
2023-03-02T11:50:47.022Z,20.00
2023-03-02T11:53:18.578Z,19.50
2023-03-02T11:55:50.021Z,19.70
2023-03-02T11:58:28.520Z,19.70
2023-03-02T12:00:57.290Z,19.70
2023-03-02T12:03:33.938Z,20.20
2023-03-02T12:06:05.919Z,20.30
2023-03-02T12:08:42.640Z,19.70
2023-03-02T12:11:20.018Z,19.20
2023-03-02T12:14:26.148Z,18.80
2023-03-02T12:17:19.633Z,18.60
2023-03-02T12:19:50.178Z,18.40
2023-03-02T12:22:30.603Z,18.50
2023-03-02T12:25:07.495Z,18.20
2023-03-02T12:27:40.076Z,18.20
2023-03-02T12:30:24.039Z,17.80
2023-03-02T12:33:10.558Z,17.50
2023-03-02T12:35:39.834Z,18.00
2023-03-02T12:38:31.285Z,18.60
2023-03-02T12:41:36.123Z,18.40
2023-03-02T12:44:39.882Z,18.50
2023-03-02T12:47:18.280Z,18.10
2023-03-02T12:49:57.012Z,17.60
2023-03-02T12:52:29.404Z,17.20
2023-03-02T12:55:10.317Z,16.80
2023-03-02T12:57:47.401Z,16.90
2023-03-02T13:00:22.835Z,17.00
2023-03-02T13:02:53.054Z,16.90
2023-03-02T13:05:30.621Z,16.70
2023-03-02T13:08:29.914Z,16.50
2023-03-02T13:11:02.246Z,16.60
2023-03-02T13:13:33.351Z,16.20
2023-03-02T13:16:06.582Z,15.90
2023-03-02T13:18:39.668Z,15.70
2023-03-02T13:21:13.749Z,15.30
2023-03-02T13:23:50.537Z,15.20
2023-03-02T13:26:36.031Z,15.30
2023-03-02T13:29:08.892Z,15.60
2023-03-02T13:31:38.663Z,15.60
2023-03-02T13:34:06.729Z,15.60
2023-03-02T13:36:38.884Z,15.50
2023-03-02T13:39:18.294Z,15.50
2023-03-02T13:41:55.891Z,15.20
2023-03-02T13:44:33.818Z,15.00
2023-03-02T13:47:02.936Z,14.80
2023-03-02T13:49:37.942Z,14.60
2023-03-02T13:52:17.353Z,14.20
2023-03-02T13:54:47.536Z,13.70
2023-03-02T13:57:25.990Z,13.50
2023-03-02T13:59:53.966Z,13.30
2023-03-02T14:02:29.910Z,13.40
2023-03-02T14:04:59.702Z,13.10
2023-03-02T14:07:28.128Z,12.80
2023-03-02T14:09:57.615Z,12.50
2023-03-02T14:12:35.219Z,12.50
2023-03-02T14:15:05.834Z,12.60
2023-03-02T14:17:35.330Z,12.60
2023-03-02T14:20:03.522Z,12.50
2023-03-02T14:22:32.832Z,12.30
2023-03-02T14:25:00.805Z,12.10
2023-03-02T14:27:31.959Z,11.90
2023-03-02T14:30:01.077Z,11.90
2023-03-02T14:32:29.691Z,12.00
2023-03-02T14:34:57.897Z,11.90
2023-03-02T14:37:29.243Z,11.70
2023-03-02T14:39:57.703Z,11.70
2023-03-02T14:42:26.024Z,11.60
2023-03-02T14:44:53.914Z,11.50
2023-03-02T14:47:22.955Z,11.60
2023-03-02T14:49:50.732Z,11.50
2023-03-02T14:52:27.170Z,11.40
2023-03-02T14:54:59.085Z,11.10
2023-03-02T14:57:30.014Z,10.90
2023-03-02T15:00:00.242Z,10.70
2023-03-02T15:02:32.622Z,10.60
2023-03-02T15:05:00.634Z,10.50
2023-03-02T15:07:29.827Z,10.40
2023-03-02T15:09:58.988Z,10.30
2023-03-02T15:12:27.497Z,10.10
2023-03-02T15:14:55.665Z,9.70
2023-03-02T15:17:23.848Z,9.30
2023-03-02T15:19:51.885Z,8.90
2023-03-02T15:22:20.421Z,8.50
2023-03-02T15:24:48.154Z,8.20
2023-03-02T15:27:16.520Z,8.00
2023-03-02T15:29:48.401Z,7.80
2023-03-02T15:32:17.085Z,7.60
2023-03-02T15:34:46.292Z,7.50
2023-03-02T15:37:15.105Z,7.40
2023-03-02T15:39:42.986Z,7.40
2023-03-02T15:42:13.717Z,7.20
2023-03-02T15:44:42.747Z,7.10
2023-03-02T15:47:12.615Z,7.00
2023-03-02T15:49:41.658Z,7.00
2023-03-02T15:52:11.502Z,6.90
2023-03-02T15:54:41.412Z,6.80
2023-03-02T15:57:10.509Z,6.70
2023-03-02T15:59:38.301Z,6.60
2023-03-02T16:02:07.851Z,6.40
2023-03-02T16:04:37.129Z,6.30
2023-03-02T16:07:05.390Z,6.20
2023-03-02T16:09:34.333Z,6.10
2023-03-02T16:12:02.635Z,6.00
2023-03-02T16:14:30.725Z,5.90
2023-03-02T16:17:01.549Z,5.80
2023-03-02T16:19:32.664Z,5.60
2023-03-02T16:22:01.081Z,5.50
2023-03-02T16:24:28.731Z,5.40
2023-03-02T16:26:59.268Z,5.30
2023-03-02T16:29:27.316Z,5.10
2023-03-02T16:31:56.011Z,5.00
2023-03-02T16:34:23.920Z,5.00
2023-03-02T16:36:52.730Z,4.90
2023-03-02T16:39:24.480Z,4.70
2023-03-02T16:41:54.225Z,4.70
2023-03-02T16:44:24.076Z,4.50
2023-03-02T16:46:52.902Z,4.50
2023-03-02T16:49:21.222Z,4.40
2023-03-02T16:51:57.333Z,4.30
2023-03-02T16:54:27.112Z,4.10
2023-03-02T16:56:55.964Z,4.10
2023-03-02T16:59:25.472Z,3.90
2023-03-02T17:01:55.383Z,3.70
2023-03-02T17:04:23.815Z,3.50
2023-03-02T17:07:02.400Z,3.30
2023-03-02T17:09:33.088Z,3.30
2023-03-02T17:12:02.284Z,3.20
2023-03-02T17:14:30.437Z,3.10
2023-03-02T17:16:59.178Z,3.10
2023-03-02T17:19:27.366Z,3.00
2023-03-02T17:22:04.467Z,3.00
2023-03-02T17:24:34.020Z,2.90
2023-03-02T17:27:10.699Z,2.90
2023-03-02T17:29:48.477Z,2.80
2023-03-02T17:32:20.652Z,2.70
2023-03-02T17:34:50.813Z,2.70
2023-03-02T17:37:21.360Z,2.50
2023-03-02T17:39:52.040Z,2.50
2023-03-02T17:42:21.234Z,2.40
2023-03-02T17:44:49.616Z,2.30
2023-03-02T17:47:22.228Z,2.20
2023-03-02T17:49:51.026Z,2.10
2023-03-02T17:52:23.915Z,2.00
2023-03-02T17:54:55.857Z,1.90
2023-03-02T17:57:28.917Z,1.90
2023-03-02T17:59:58.710Z,1.80
2023-03-02T18:02:29.151Z,1.70
2023-03-02T18:04:59.372Z,1.60
2023-03-02T18:07:30.389Z,1.50
2023-03-02T18:10:00.455Z,1.50
2023-03-02T18:12:29.690Z,1.40
2023-03-02T18:14:58.987Z,1.40
2023-03-02T18:17:28.112Z,1.40
2023-03-02T18:19:57.679Z,1.30
2023-03-02T18:22:26.563Z,1.20
2023-03-02T18:24:55.426Z,1.10
2023-03-02T18:27:26.519Z,1.10
2023-03-02T18:29:57.090Z,1.00
2023-03-02T18:32:26.933Z,0.90
2023-03-02T18:34:56.316Z,0.80
2023-03-02T18:37:28.188Z,0.80
2023-03-02T18:39:59.630Z,0.80
2023-03-02T18:42:31.190Z,0.70
2023-03-02T18:45:02.648Z,0.70
2023-03-02T18:47:40.566Z,0.70
2023-03-02T18:50:14.944Z,0.60
2023-03-02T18:52:46.672Z,0.60
2023-03-02T18:55:17.608Z,0.60
2023-03-02T18:57:48.141Z,0.50
2023-03-02T19:00:24.595Z,0.50
2023-03-02T19:02:59.326Z,0.40
2023-03-02T19:05:31.748Z,0.40
2023-03-02T19:08:05.019Z,0.40
2023-03-02T19:10:40.278Z,0.40
2023-03-02T19:13:14.136Z,0.40
2023-03-02T19:15:45.558Z,0.40
2023-03-02T19:18:24.138Z,0.40
2023-03-02T19:20:55.576Z,0.40
2023-03-02T19:23:29.124Z,0.40
2023-03-02T19:26:00.530Z,0.30
2023-03-02T19:28:30.845Z,0.30
2023-03-02T19:31:05.872Z,0.20
2023-03-02T19:33:39.162Z,0.20
2023-03-02T19:36:10.192Z,0.10
2023-03-02T19:38:43.718Z,0.10
2023-03-02T19:41:16.487Z,0.10
2023-03-02T19:43:48.289Z,0.20
2023-03-02T19:46:20.344Z,0.20
2023-03-02T19:48:50.368Z,0.20
2023-03-02T19:51:19.330Z,0.10
2023-03-02T19:53:51.282Z,0.00
2023-03-02T19:56:21.853Z,0.00
2023-03-02T19:58:55.091Z,0.00
2023-03-02T20:01:28.378Z,0.00
2023-03-02T20:04:00.880Z,0.00
2023-03-02T20:06:41.818Z,0.00
2023-03-02T20:09:20.206Z,0.00
2023-03-02T20:11:51.629Z,0.00
2023-03-02T20:14:33.298Z,0.00
2023-03-02T20:17:06.271Z,0.00
2023-03-02T20:19:41.753Z,-0.10
2023-03-02T20:22:14.001Z,-0.10
2023-03-02T20:24:44.805Z,-0.10
2023-03-02T20:27:15.571Z,-0.10
2023-03-02T20:29:46.392Z,-0.10
2023-03-02T20:32:16.004Z,-0.10
2023-03-02T20:34:54.195Z,-0.10
2023-03-02T20:37:25.034Z,-0.10
2023-03-02T20:39:55.150Z,-0.10
2023-03-02T20:42:26.857Z,-0.10
2023-03-02T20:44:58.082Z,-0.10
2023-03-02T20:47:30.006Z,-0.10
2023-03-02T20:50:00.641Z,-0.10
2023-03-02T20:52:31.512Z,-0.10
2023-03-02T20:55:03.754Z,-0.10
2023-03-02T20:57:33.286Z,-0.10
2023-03-02T21:00:03.568Z,-0.10
2023-03-02T21:02:33.402Z,-0.10
2023-03-02T21:05:03.484Z,-0.10
2023-03-02T21:07:36.389Z,-0.10
2023-03-02T21:10:08.534Z,-0.10
2023-03-02T21:12:37.798Z,-0.10
2023-03-02T21:15:09.170Z,-0.10
2023-03-02T21:17:40.575Z,-0.10
2023-03-02T21:20:09.821Z,-0.10
2023-03-02T21:22:39.444Z,-0.10
2023-03-02T21:25:09.734Z,-0.10
2023-03-02T21:27:40.701Z,0.00
2023-03-02T21:30:12.271Z,-0.10
2023-03-02T21:32:46.279Z,-0.10
2023-03-02T21:35:18.607Z,-0.10
2023-03-02T21:37:49.634Z,0.00
2023-03-02T21:40:26.200Z,0.00
2023-03-02T21:42:57.044Z,0.00
2023-03-02T21:45:25.716Z,0.00
2023-03-02T21:47:55.909Z,0.00
2023-03-02T21:50:28.231Z,-0.10
2023-03-02T21:52:59.985Z,-0.10
2023-03-02T21:55:30.132Z,-0.10
2023-03-02T21:58:00.097Z,0.00
2023-03-02T22:00:36.777Z,0.00
2023-03-02T22:03:06.730Z,0.00
2023-03-02T22:05:35.124Z,0.00
2023-03-02T22:08:03.411Z,0.00
2023-03-02T22:10:39.487Z,0.00
2023-03-02T22:13:21.680Z,0.00
2023-03-02T22:15:51.428Z,0.00
2023-03-02T22:18:21.933Z,0.00
2023-03-02T22:20:52.112Z,0.00
2023-03-02T22:23:23.835Z,-0.10
2023-03-02T22:25:54.036Z,-0.10
2023-03-02T22:28:25.031Z,-0.10
2023-03-02T22:30:58.933Z,-0.10
2023-03-02T22:33:29.785Z,-0.10
2023-03-02T22:36:12.113Z,-0.10
2023-03-02T22:38:40.266Z,-0.10
2023-03-02T22:41:15.642Z,-0.10
2023-03-02T22:43:44.287Z,-0.10
2023-03-02T22:46:22.175Z,-0.10
2023-03-02T22:48:54.592Z,-0.10
2023-03-02T22:51:24.852Z,-0.10
2023-03-02T22:53:56.354Z,-0.10
2023-03-02T22:56:34.477Z,-0.10
2023-03-02T22:59:29.769Z,-0.10
2023-03-02T23:02:03.672Z,-0.20
2023-03-02T23:04:36.390Z,-0.20
2023-03-02T23:07:18.883Z,-0.20
2023-03-02T23:09:47.872Z,-0.20
2023-03-02T23:12:23.365Z,-0.20
2023-03-02T23:14:54.805Z,-0.10
2023-03-02T23:17:33.316Z,-0.10
2023-03-02T23:20:02.911Z,-0.10
2023-03-02T23:22:31.851Z,-0.10
2023-03-02T23:25:00.224Z,0.00
2023-03-02T23:27:28.856Z,0.00
2023-03-02T23:29:56.924Z,0.00
2023-03-02T23:32:25.435Z,0.00
2023-03-02T23:34:53.533Z,-0.10
2023-03-02T23:37:21.318Z,-0.10
2023-03-02T23:39:49.575Z,-0.10
2023-03-02T23:42:18.663Z,-0.10
2023-03-02T23:44:46.803Z,-0.20
2023-03-02T23:47:14.648Z,-0.20
2023-03-02T23:49:43.570Z,-0.20
2023-03-02T23:52:12.422Z,-0.10
2023-03-02T23:54:42.078Z,-0.10
2023-03-02T23:57:09.890Z,-0.10
2023-03-02T23:59:38.638Z,-0.10
